Time;durP1;ratioP1;P1;durP2;ratioP2;P2;SDS_P1;SDS_P2;PMS_P1;PMS_P2;Temp;Humidity;BMP_temperature;BMP_pressure;BME280_temperature;BME280_humidity;BME280_pressure;Samples;Min_cycle;Max_cycle;Signal;HPM_P1;HPM_P2
2022/09/09 00:01:26;;;;;;;;;2.00;1.00;;;;;17.79;64.01;100349.22;5081899;27;46480;-57
2022/09/09 00:04:02;;;;;;;;;2.00;1.00;;;;;17.77;64.11;100340.44;5080127;27;45415;-56
2022/09/09 00:06:31;;;;;;;;;1.00;1.00;;;;;17.75;64.10;100352.34;5082177;27;45905;-57
2022/09/09 00:08:59;;;;;;;;;3.00;1.00;;;;;17.74;64.27;100335.34;5091539;27;45591;-54
2022/09/09 00:11:41;;;;;;;;;1.00;1.00;;;;;17.68;64.42;100333.16;5097001;27;46287;-57
2022/09/09 00:14:35;;;;;;;;;2.00;0.00;;;;;17.62;64.50;100328.34;5093932;27;45504;-57
2022/09/09 00:17:05;;;;;;;;;2.00;1.67;;;;;17.63;64.52;100336.28;5072393;27;45617;-56
2022/09/09 00:19:40;;;;;;;;;1.00;1.00;;;;;17.60;65.07;100338.41;5083208;27;45326;-59
2022/09/09 00:22:22;;;;;;;;;4.00;1.00;;;;;17.58;64.67;100333.16;5077635;27;46167;-60
2022/09/09 00:25:12;;;;;;;;;2.67;1.00;;;;;17.53;65.11;100340.75;5080486;27;45330;-58
2022/09/09 00:27:44;;;;;;;;;1.33;1.00;;;;;17.53;64.91;100332.69;5080742;27;45546;-59
2022/09/09 00:30:13;;;;;;;;;2.33;1.00;;;;;17.53;65.11;100346.16;5093530;27;45258;-61
2022/09/09 00:32:39;;;;;;;;;4.33;1.00;;;;;17.47;65.34;100335.94;5094245;27;45441;-59
2022/09/09 00:35:20;;;;;;;;;3.00;1.00;;;;;17.49;65.57;100343.88;5095029;27;45909;-58
2022/09/09 00:37:49;;;;;;;;;0.33;0.33;;;;;17.45;65.88;100353.19;5097091;27;45258;-59
2022/09/09 00:40:24;;;;;;;;;2.33;1.00;;;;;17.45;65.84;100345.13;5092935;27;45771;-58
2022/09/09 00:43:01;;;;;;;;;3.00;1.00;;;;;17.38;66.22;100326.84;5080744;27;45483;-60
2022/09/09 00:45:59;;;;;;;;;3.00;1.67;;;;;17.42;66.44;100340.00;5082791;27;45381;-58
2022/09/09 00:48:38;;;;;;;;;2.00;1.00;;;;;17.41;66.46;100339.16;5096804;27;45416;-59
2022/09/09 00:51:17;;;;;;;;;0.67;0.67;;;;;17.38;66.01;100326.00;5095937;27;45368;-61
2022/09/09 00:53:59;;;;;;;;;1.33;1.00;;;;;17.38;66.52;100328.69;5096264;27;45507;-61
2022/09/09 00:56:36;;;;;;;;;3.00;1.67;;;;;17.37;66.52;100324.31;5095182;27;45419;-60
2022/09/09 00:59:36;;;;;;;;;4.00;1.00;;;;;17.33;66.38;100325.56;5097062;27;45348;-59
2022/09/09 01:02:13;;;;;;;;;2.33;0.00;;;;;17.28;67.00;100322.41;5082184;27;45244;-59
2022/09/09 01:04:38;;;;;;;;;5.00;3.00;;;;;17.28;67.39;100322.41;5083605;27;46381;-59
2022/09/09 01:07:17;;;;;;;;;6.67;1.67;;;;;17.23;67.01;100322.00;5097221;27;45376;-58
2022/09/09 01:09:51;;;;;;;;;2.00;1.00;;;;;17.25;67.57;100320.00;5083461;27;45776;-59
2022/09/09 01:12:41;;;;;;;;;3.67;2.00;;;;;17.26;67.29;100325.25;5076973;27;45806;-58
2022/09/09 01:15:28;;;;;;;;;1.00;1.00;;;;;17.22;67.46;100315.75;5079925;27;47316;-59
2022/09/09 01:18:04;;;;;;;;;4.33;1.33;;;;;17.26;67.09;100319.88;5070566;27;45354;-57
2022/09/09 01:21:00;;;;;;;;;3.33;2.00;;;;;17.23;66.98;100314.78;5095993;27;45361;-59
2022/09/09 01:23:34;;;;;;;;;2.00;0.33;;;;;17.22;67.34;100317.59;5097201;27;45646;-58
2022/09/09 01:26:15;;;;;;;;;1.67;1.00;;;;;17.22;67.27;100314.91;5109133;27;46036;-58
2022/09/09 01:28:44;;;;;;;;;4.00;1.00;;;;;17.24;67.27;100321.00;5087127;27;46131;-59
2022/09/09 01:31:14;;;;;;;;;2.00;1.00;;;;;17.25;67.46;100317.31;5084303;27;45492;-58
2022/09/09 01:33:39;;;;;;;;;2.67;1.67;;;;;17.27;67.11;100316.19;5083693;27;45390;-58
2022/09/09 01:36:10;;;;;;;;;1.00;1.00;;;;;17.27;67.66;100323.41;5096243;27;46332;-59
2022/09/09 01:38:36;;;;;;;;;1.00;1.00;;;;;17.27;67.30;100323.41;5096770;27;45418;-58
2022/09/09 01:41:02;;;;;;;;;3.00;1.33;;;;;17.30;67.22;100309.69;5096044;27;45663;-62
2022/09/09 01:43:29;;;;;;;;;2.33;2.00;;;;;17.26;67.57;100313.66;5089229;27;45558;-59
2022/09/09 01:45:58;;;;;;;;;1.00;1.00;;;;;17.33;67.05;100330.94;5086227;27;45504;-59
2022/09/09 01:48:24;;;;;;;;;4.00;1.33;;;;;17.35;67.47;100335.19;5095596;27;45354;-56
2022/09/09 01:50:50;;;;;;;;;3.33;1.00;;;;;17.35;67.43;100334.34;5091347;27;45279;-59
2022/09/09 01:53:17;;;;;;;;;1.67;0.00;;;;;17.37;67.43;100333.22;5096948;27;45493;-59
2022/09/09 01:56:01;;;;;;;;;4.00;2.33;;;;;17.38;66.94;100328.69;5093379;27;46387;-59
2022/09/09 01:58:45;;;;;;;;;1.00;1.00;;;;;17.39;67.54;100330.38;5087034;27;45444;-59
2022/09/09 02:01:29;;;;;;;;;2.00;1.00;;;;;17.38;66.97;100326.00;5085541;27;45352;-58
2022/09/09 02:03:57;;;;;;;;;0.67;0.67;;;;;17.38;67.13;100323.31;5094963;27;45582;-60
2022/09/09 02:06:33;;;;;;;;;3.00;1.33;;;;;17.43;67.03;100336.34;5075855;28;45428;-57
2022/09/09 02:09:03;;;;;;;;;1.00;1.00;;;;;17.39;66.99;100314.25;5082138;27;45333;-58
2022/09/09 02:11:29;;;;;;;;;4.00;2.00;;;;;17.40;67.17;100321.34;5095445;27;45712;-60
2022/09/09 02:14:02;;;;;;;;;2.00;1.00;;;;;17.43;67.16;100321.06;5096103;27;45332;-59
2022/09/09 02:16:42;;;;;;;;;4.00;1.00;;;;;17.39;67.32;100317.78;5081689;27;46206;-59
2022/09/09 02:19:27;;;;;;;;;2.33;1.00;;;;;17.33;67.73;100312.13;5087091;27;45382;-58
2022/09/09 02:21:55;;;;;;;;;1.67;1.67;;;;;17.29;67.65;100313.38;5064444;28;45598;-57
2022/09/09 02:24:21;;;;;;;;;1.00;1.00;;;;;17.13;67.87;100278.09;5094354;27;45623;-58
2022/09/09 02:26:52;;;;;;;;;1.33;0.00;;;;;17.19;68.19;100304.41;5079552;27;45356;-58
2022/09/09 02:29:23;;;;;;;;;3.67;2.33;;;;;17.16;68.67;100302.84;5095332;27;45494;-56
2022/09/09 02:31:49;;;;;;;;;1.00;1.00;;;;;17.14;67.95;100293.22;5098931;27;45380;-58
2022/09/09 02:34:17;;;;;;;;;1.67;1.00;;;;;17.03;68.51;100281.59;5099053;27;45566;-58
2022/09/09 02:36:45;;;;;;;;;3.67;2.00;;;;;17.10;68.30;100298.88;5093790;27;46056;-57
2022/09/09 02:39:11;;;;;;;;;1.00;1.00;;;;;17.08;68.49;100300.84;5097603;27;45234;-57
2022/09/09 02:41:40;;;;;;;;;2.67;2.00;;;;;17.07;68.36;100293.78;5097754;27;45441;-57
2022/09/09 02:44:11;;;;;;;;;2.00;2.00;;;;;17.07;68.19;100285.72;5099142;27;45348;-57
2022/09/09 02:46:52;;;;;;;;;3.00;2.00;;;;;17.09;68.55;100289.13;5099966;27;45286;-57
2022/09/09 02:49:21;;;;;;;;;1.67;1.67;;;;;17.10;68.44;100293.50;5097612;27;45236;-57
2022/09/09 02:51:49;;;;;;;;;3.33;2.00;;;;;17.15;68.52;100294.94;5098875;27;45372;-57
2022/09/09 02:54:30;;;;;;;;;1.67;1.00;;;;;17.13;68.57;100283.47;5098955;27;45431;-60
2022/09/09 02:57:01;;;;;;;;;1.00;1.00;;;;;17.17;68.25;100287.56;5098451;27;45473;-60
2022/09/09 02:59:27;;;;;;;;;5.00;3.00;;;;;17.16;67.76;100283.19;5096073;27;45403;-58
2022/09/09 03:01:53;;;;;;;;;1.00;1.00;;;;;17.17;68.67;100292.94;5088434;27;45188;-58
2022/09/09 03:04:18;;;;;;;;;1.00;1.00;;;;;17.16;68.45;100285.88;5105321;27;45264;-56
2022/09/09 03:06:44;;;;;;;;;3.00;1.00;;;;;17.15;68.22;100287.72;5098228;27;45348;-58
2022/09/09 03:09:10;;;;;;;;;1.67;1.00;;;;;17.22;68.58;100286.19;5084764;27;45257;-59
2022/09/09 03:11:36;;;;;;;;;1.33;1.00;;;;;17.22;68.68;100290.72;5091200;27;45265;-57
2022/09/09 03:14:01;;;;;;;;;1.67;0.00;;;;;17.19;68.40;100289.16;5097721;27;45510;-56
2022/09/09 03:16:27;;;;;;;;;4.33;1.33;;;;;17.17;68.44;100282.19;5088523;27;46388;-58
2022/09/09 03:18:52;;;;;;;;;2.00;2.00;;;;;17.06;68.82;100281.34;5091488;27;45523;-58
2022/09/09 03:21:18;;;;;;;;;8.00;1.00;;;;;17.13;68.39;100276.25;5092675;27;45771;-57
2022/09/09 03:23:44;;;;;;;;;2.67;2.67;;;;;17.15;68.72;100289.56;5098616;27;45288;-59
2022/09/09 03:26:11;;;;;;;;;3.00;2.67;;;;;17.13;68.94;100297.75;5083026;27;45454;-57
2022/09/09 03:28:37;;;;;;;;;3.00;1.67;;;;;17.12;69.12;100284.47;5081961;27;45395;-57
2022/09/09 03:31:05;;;;;;;;;2.67;1.00;;;;;17.12;68.68;100287.16;5099138;27;44732;-59
2022/09/09 03:33:34;;;;;;;;;2.00;2.00;;;;;17.16;68.70;100294.78;5095318;27;45502;-58
2022/09/09 03:35:59;;;;;;;;;2.67;1.00;;;;;17.17;68.49;100288.44;5096028;27;45456;-58
2022/09/09 03:38:24;;;;;;;;;1.00;1.00;;;;;17.16;68.67;100299.31;5097347;27;45353;-56
2022/09/09 03:40:55;;;;;;;;;4.33;2.00;;;;;17.15;68.27;100294.94;5085586;27;45480;-58
2022/09/09 03:43:21;;;;;;;;;2.67;1.33;;;;;17.15;68.25;100295.78;5087306;27;45471;-58
2022/09/09 03:45:47;;;;;;;;;1.00;1.00;;;;;17.09;68.92;100283.75;5086335;27;46471;-57
2022/09/09 03:48:14;;;;;;;;;4.33;2.00;;;;;17.12;68.78;100284.47;5088506;27;45904;-60
2022/09/09 03:50:47;;;;;;;;;0.67;0.67;;;;;17.10;68.52;100285.44;5088097;27;46004;-61
2022/09/09 03:53:14;;;;;;;;;2.67;2.67;;;;;17.05;69.17;100286.81;5082371;27;45420;-58
2022/09/09 03:55:45;;;;;;;;;1.67;1.67;;;;;17.02;68.95;100284.41;5082376;27;45486;-60
2022/09/09 03:58:11;;;;;;;;;2.33;1.00;;;;;16.94;69.22;100279.72;5079785;27;45274;-57
2022/09/09 04:00:36;;;;;;;;;2.00;1.00;;;;;16.87;69.72;100286.59;5078845;27;45329;-57
2022/09/09 04:03:02;;;;;;;;;4.00;1.00;;;;;16.90;69.55;100285.47;5081496;27;45586;-59
2022/09/09 04:05:27;;;;;;;;;1.00;1.00;;;;;16.86;69.48;100286.75;5110930;27;48325;-57
2022/09/09 04:07:54;;;;;;;;;3.33;2.00;;;;;16.87;69.70;100280.38;5097260;27;45439;-60
2022/09/09 04:10:20;;;;;;;;;2.00;2.00;;;;;16.89;69.62;100297.22;5098682;27;45434;-57
2022/09/09 04:12:46;;;;;;;;;4.67;3.00;;;;;16.88;69.28;100288.31;5085008;27;45797;-58
2022/09/09 04:15:11;;;;;;;;;2.00;2.00;;;;;16.89;69.46;100284.63;5093481;27;45355;-58
2022/09/09 04:17:36;;;;;;;;;3.00;3.00;;;;;16.87;69.33;100283.91;5093692;27;45476;-58
2022/09/09 04:20:02;;;;;;;;;2.00;2.00;;;;;16.80;70.23;100270.19;5087704;27;45813;-59
2022/09/09 04:22:28;;;;;;;;;1.00;1.00;;;;;16.75;69.69;100279.63;5084592;27;45679;-59
2022/09/09 04:24:53;;;;;;;;;2.00;1.00;;;;;16.79;70.08;100286.41;5087114;27;45269;-57
2022/09/09 04:27:19;;;;;;;;;3.00;2.00;;;;;16.70;70.48;100280.03;5094608;27;46161;-56
2022/09/09 04:29:44;;;;;;;;;2.00;2.00;;;;;16.76;70.31;100284.84;5086947;27;45492;-56
2022/09/09 04:32:10;;;;;;;;;3.00;3.00;;;;;16.73;70.40;100289.63;5079848;27;45636;-59
2022/09/09 04:34:35;;;;;;;;;1.00;1.00;;;;;16.73;70.90;100284.28;5094031;27;45343;-58
2022/09/09 04:37:01;;;;;;;;;3.00;3.00;;;;;16.69;70.77;100283.69;5085601;27;45521;-58
2022/09/09 04:39:26;;;;;;;;;2.00;2.00;;;;;16.71;70.64;100286.25;5083618;27;45319;-61
2022/09/09 04:41:51;;;;;;;;;7.00;3.00;;;;;16.64;70.92;100290.38;5088014;27;45164;-60
2022/09/09 04:44:17;;;;;;;;;7.67;1.67;;;;;16.69;71.00;100288.22;5085791;27;46179;-59
2022/09/09 04:46:42;;;;;;;;;2.33;2.33;;;;;16.70;70.91;100289.91;5094924;27;45379;-57
2022/09/09 04:49:08;;;;;;;;;3.00;3.00;;;;;16.70;70.93;100290.75;5092681;27;45526;-57
2022/09/09 04:51:33;;;;;;;;;2.00;2.00;;;;;16.63;70.83;100283.31;5097020;27;45444;-58
2022/09/09 04:53:59;;;;;;;;;5.00;2.00;;;;;16.68;70.86;100297.25;5090688;27;46270;-59
2022/09/09 04:56:26;;;;;;;;;2.67;2.00;;;;;16.65;71.14;100286.72;5095012;27;45437;-58
2022/09/09 04:58:52;;;;;;;;;3.33;3.00;;;;;16.64;70.86;100296.59;5093353;27;45418;-60
2022/09/09 05:01:23;;;;;;;;;2.33;2.00;;;;;16.62;70.73;100298.56;5090443;27;46976;-60
2022/09/09 05:03:49;;;;;;;;;4.00;3.00;;;;;16.59;71.27;100289.94;5096786;27;45566;-55
2022/09/09 05:06:20;;;;;;;;;4.33;2.67;;;;;16.58;70.99;100296.31;5089517;27;45498;-57
2022/09/09 05:08:46;;;;;;;;;2.00;2.00;;;;;16.58;71.48;100296.31;5091921;27;45200;-58
2022/09/09 05:11:17;;;;;;;;;3.00;2.00;;;;;16.56;71.57;100309.84;5087973;27;45295;-58
2022/09/09 05:13:43;;;;;;;;;1.00;1.00;;;;;16.49;70.93;100305.97;5085862;27;46422;-59
2022/09/09 05:16:11;;;;;;;;;2.00;2.00;;;;;16.55;70.93;100318.03;5087486;27;45416;-59
2022/09/09 05:18:40;;;;;;;;;1.33;1.33;;;;;16.55;71.24;100315.38;5083116;27;45261;-57
2022/09/09 05:21:06;;;;;;;;;4.00;4.00;;;;;16.56;71.36;100314.38;5086006;27;45546;-61
2022/09/09 05:23:33;;;;;;;;;7.00;2.33;;;;;16.61;71.35;100317.50;5089772;27;46825;-59
2022/09/09 05:26:00;;;;;;;;;1.67;1.00;;;;;16.64;71.00;100325.28;5099141;27;45313;-60
2022/09/09 05:28:26;;;;;;;;;2.00;2.00;;;;;16.66;70.78;100315.28;5095488;27;45442;-59
2022/09/09 05:31:00;;;;;;;;;5.00;4.00;;;;;16.68;70.98;100310.69;5093469;27;45500;-59
2022/09/09 05:33:26;;;;;;;;;3.00;1.00;;;;;16.73;70.63;100322.72;5084675;27;47470;-59
2022/09/09 05:36:07;;;;;;;;;5.00;2.00;;;;;16.68;70.84;100297.25;5086778;27;45511;-58
2022/09/09 05:38:34;;;;;;;;;1.67;1.67;;;;;16.77;70.28;100317.91;5096178;27;45424;-58
2022/09/09 05:41:00;;;;;;;;;4.33;2.00;;;;;16.78;70.35;100314.25;5085835;27;45322;-58
2022/09/09 05:43:27;;;;;;;;;2.00;2.00;;;;;16.81;70.18;100305.94;5076852;27;46034;-60
2022/09/09 05:46:07;;;;;;;;;2.00;1.00;;;;;16.83;70.58;100312.03;5085096;27;45557;-59
2022/09/09 05:48:37;;;;;;;;;2.00;2.00;;;;;16.90;70.05;100312.34;5090665;27;45372;-60
2022/09/09 05:51:03;;;;;;;;;3.67;2.33;;;;;16.92;70.31;100310.38;5085613;27;45364;-61
2022/09/09 05:53:36;;;;;;;;;5.67;2.67;;;;;16.92;70.08;100318.41;5088084;27;45581;-68
2022/09/09 05:56:07;;;;;;;;;3.00;2.00;;;;;16.94;70.07;100311.09;5082485;27;45863;-59
2022/09/09 05:58:34;;;;;;;;;2.00;2.00;;;;;16.97;70.10;100303.63;5076553;27;45416;-59
2022/09/09 06:01:11;;;;;;;;;1.67;1.33;;;;;17.02;70.35;100306.75;5088887;27;45585;-58
2022/09/09 06:03:39;;;;;;;;;4.67;3.00;;;;;17.01;70.28;100302.38;5090869;27;45287;-58
2022/09/09 06:06:07;;;;;;;;;2.67;2.67;;;;;17.04;70.45;100304.78;5087263;27;45497;-58
2022/09/09 06:08:38;;;;;;;;;1.00;1.00;;;;;17.07;70.23;100309.91;5092937;27;45336;-58
2022/09/09 06:11:11;;;;;;;;;3.67;3.67;;;;;17.14;70.22;100310.19;5092635;27;45493;-58
2022/09/09 06:13:38;;;;;;;;;2.00;2.00;;;;;17.20;69.86;100309.69;5091081;27;46229;-58
2022/09/09 06:16:08;;;;;;;;;4.00;3.00;;;;;17.07;69.77;100293.78;5093924;27;45326;-59
2022/09/09 06:18:34;;;;;;;;;1.67;1.67;;;;;17.27;69.73;100321.56;5092780;27;45595;-58
2022/09/09 06:21:06;;;;;;;;;5.00;3.00;;;;;17.27;69.79;100312.66;5094837;27;45351;-59
2022/09/09 06:23:32;;;;;;;;;5.00;2.00;;;;;17.27;69.58;100315.34;5086190;27;48609;-56
2022/09/09 06:26:13;;;;;;;;;3.00;2.00;;;;;17.27;69.54;100312.66;5095610;27;45306;-58
2022/09/09 06:28:39;;;;;;;;;3.67;2.33;;;;;17.31;69.55;100314.06;5095289;27;45472;-55
2022/09/09 06:31:10;;;;;;;;;2.00;2.00;;;;;17.34;69.20;100316.53;5090905;27;45433;-58
2022/09/09 06:33:40;;;;;;;;;4.00;2.00;;;;;17.36;68.80;100320.75;5075330;27;46320;-57
2022/09/09 06:36:10;;;;;;;;;2.33;2.00;;;;;17.39;69.07;100325.00;5074370;27;45410;-56
2022/09/09 06:38:36;;;;;;;;;4.00;2.33;;;;;17.40;69.13;100321.34;5075906;27;45961;-56
2022/09/09 06:41:02;;;;;;;;;2.00;2.00;;;;;17.40;68.80;100326.72;5090389;27;45486;-59
2022/09/09 06:43:28;;;;;;;;;5.00;2.00;;;;;17.44;69.12;100324.59;5095644;27;45492;-59
2022/09/09 06:45:58;;;;;;;;;2.67;2.67;;;;;17.44;68.67;100312.00;5093906;27;45361;-60
2022/09/09 06:48:25;;;;;;;;;1.67;1.67;;;;;17.47;69.00;100311.75;5077309;27;45323;-59
2022/09/09 06:51:04;;;;;;;;;2.00;2.00;;;;;17.50;68.35;100308.78;5086303;27;45335;-59
2022/09/09 06:53:29;;;;;;;;;5.00;3.00;;;;;17.50;68.60;100306.09;5095345;27;46722;-57
2022/09/09 06:55:55;;;;;;;;;2.00;2.00;;;;;17.59;68.39;100309.81;5082264;27;46026;-57
2022/09/09 06:58:21;;;;;;;;;3.33;2.00;;;;;17.60;68.19;100317.72;5089891;27;45387;-58
2022/09/09 07:00:47;;;;;;;;;3.00;3.00;;;;;17.61;67.85;100318.59;5091196;27;45602;-58
2022/09/09 07:03:13;;;;;;;;;4.33;2.00;;;;;17.65;67.76;100312.78;5083763;27;46124;-58
2022/09/09 07:05:39;;;;;;;;;2.00;2.00;;;;;17.75;67.57;100325.44;5087659;27;45389;-58
2022/09/09 07:08:05;;;;;;;;;5.33;2.00;;;;;17.80;67.23;100323.16;5098735;27;45466;-57
2022/09/09 07:10:30;;;;;;;;;4.33;3.00;;;;;17.81;66.84;100320.34;5089768;27;45695;-58
2022/09/09 07:12:56;;;;;;;;;3.00;1.67;;;;;17.83;66.58;100322.88;5093073;27;45718;-57
2022/09/09 07:15:22;;;;;;;;;2.00;0.67;;;;;17.86;66.69;100331.56;5087116;27;45559;-57
2022/09/09 07:17:48;;;;;;;;;1.67;1.67;;;;;17.86;66.62;100325.31;5088393;27;45761;-58
2022/09/09 07:20:14;;;;;;;;;1.67;1.67;;;;;17.86;66.42;100325.31;5101682;27;45457;-57
2022/09/09 07:22:40;;;;;;;;;3.00;2.00;;;;;17.91;66.40;100331.13;5088227;27;46081;-59
2022/09/09 07:25:06;;;;;;;;;4.00;1.00;;;;;17.90;66.71;100326.72;5104704;27;45481;-56
2022/09/09 07:27:32;;;;;;;;;2.67;1.00;;;;;17.84;66.60;100321.91;5089511;27;45973;-57
2022/09/09 07:29:57;;;;;;;;;2.67;1.00;;;;;17.91;66.03;100331.13;5083728;27;44756;-59
2022/09/09 07:32:26;;;;;;;;;1.67;1.67;;;;;17.95;66.00;100337.91;5085783;27;45459;-59
2022/09/09 07:34:51;;;;;;;;;4.00;2.67;;;;;18.02;65.89;100341.75;5083844;27;45432;-58
2022/09/09 07:37:17;;;;;;;;;3.00;2.00;;;;;18.07;65.59;100344.88;5093441;27;45451;-58
2022/09/09 07:39:44;;;;;;;;;4.00;2.00;;;;;18.07;65.46;100350.25;5093013;27;45619;-58
2022/09/09 07:42:11;;;;;;;;;3.00;1.00;;;;;18.08;65.49;100351.09;5092871;27;46348;-56
2022/09/09 07:44:36;;;;;;;;;2.67;1.00;;;;;18.11;65.23;100348.16;5093538;27;45373;-57
2022/09/09 07:47:03;;;;;;;;;2.67;2.67;;;;;18.20;65.38;100348.16;5086013;27;46636;-57
2022/09/09 07:49:28;;;;;;;;;2.00;2.00;;;;;18.31;65.00;100357.09;5085486;27;45571;-60
2022/09/09 07:51:54;;;;;;;;;2.00;2.00;;;;;18.37;64.86;100348.47;5088483;27;45413;-58
2022/09/09 07:54:20;;;;;;;;;4.00;2.00;;;;;18.43;64.64;100354.09;5091825;27;45457;-58
2022/09/09 07:56:46;;;;;;;;;1.00;1.00;;;;;18.46;64.53;100348.44;5089376;27;45559;-57
2022/09/09 07:59:12;;;;;;;;;1.33;1.00;;;;;18.43;64.42;100359.50;5080703;27;45418;-59
2022/09/09 08:01:45;;;;;;;;;2.00;2.00;;;;;18.47;64.72;100362.75;5089991;27;46809;-56
2022/09/09 08:04:16;;;;;;;;;3.00;3.00;;;;;18.43;64.29;100348.72;5084186;27;45432;-57
2022/09/09 08:06:47;;;;;;;;;2.00;2.00;;;;;18.50;64.46;100374.09;5088632;27;45718;-57
2022/09/09 08:09:14;;;;;;;;;2.00;2.00;;;;;18.49;64.55;100363.44;5081137;27;45389;-59
2022/09/09 08:11:40;;;;;;;;;0.00;0.00;;;;;18.49;64.04;100369.72;5080758;27;46528;-58
2022/09/09 08:14:11;;;;;;;;;1.00;1.00;;;;;18.54;63.82;100361.19;5088272;27;47938;-58
2022/09/09 08:16:42;;;;;;;;;2.00;2.00;;;;;18.58;63.56;100370.69;5087407;27;46598;-58
2022/09/09 08:19:08;;;;;;;;;2.33;1.00;;;;;18.67;63.48;100375.25;5093288;27;45511;-58
2022/09/09 08:21:36;;;;;;;;;2.00;2.00;;;;;18.72;63.22;100370.28;5096549;27;46365;-59
2022/09/09 08:24:02;;;;;;;;;1.00;1.00;;;;;18.77;63.10;100361.78;5094719;27;47132;-57
2022/09/09 08:26:30;;;;;;;;;1.00;1.00;;;;;18.90;62.73;100361.47;5083422;27;45424;-57
2022/09/09 08:28:57;;;;;;;;;2.67;1.33;;;;;19.03;62.32;100367.41;5082196;27;45880;-56
2022/09/09 08:31:27;;;;;;;;;3.00;2.00;;;;;19.06;62.26;100365.25;5091140;27;46496;-57
2022/09/09 08:33:55;;;;;;;;;3.00;2.00;;;;;19.12;61.83;100370.06;5089688;27;45568;-59
2022/09/09 08:36:23;;;;;;;;;1.67;1.00;;;;;19.15;61.79;100358.16;5095104;27;45495;-56
2022/09/09 08:38:57;;;;;;;;;5.00;1.67;;;;;19.25;61.78;100367.03;5078221;27;45485;-56
2022/09/09 08:41:42;;;;;;;;;2.00;2.00;;;;;19.28;60.82;100366.75;5090504;27;46792;-57
2022/09/09 08:44:56;;;;;;;;;2.33;2.00;;;;;19.34;61.01;100360.75;5094129;27;45352;-56
2022/09/09 08:47:34;;;;;;;;;4.33;2.00;;;;;19.41;60.79;100367.28;5090639;27;45645;-59
2022/09/09 08:50:09;;;;;;;;;4.00;2.00;;;;;19.46;60.86;100369.53;5122920;27;45464;-57
2022/09/09 08:52:40;;;;;;;;;1.00;1.00;;;;;19.46;60.56;100380.31;5084360;27;46253;-56
2022/09/09 08:55:37;;;;;;;;;4.00;2.00;;;;;19.47;60.53;100373.06;5088983;27;45566;-55
2022/09/09 08:58:30;;;;;;;;;2.33;0.00;;;;;19.56;60.67;100381.16;5055411;27;45465;-58
2022/09/09 09:01:08;;;;;;;;;1.00;1.00;;;;;19.69;59.84;100378.13;5084886;27;45587;-57
2022/09/09 09:03:41;;;;;;;;;3.00;1.33;;;;;19.73;59.66;100388.44;5080719;27;45467;-56
2022/09/09 09:06:19;;;;;;;;;2.67;2.00;;;;;19.84;59.76;100398.19;5095373;27;45357;-57
2022/09/09 09:09:01;;;;;;;;;5.33;3.00;;;;;20.10;58.62;100390.22;5093271;27;45245;-57
2022/09/09 09:11:26;;;;;;;;;4.00;1.00;;;;;20.28;58.33;100391.09;5095777;27;45964;-57
2022/09/09 09:14:02;;;;;;;;;2.00;1.75;;;;;20.57;58.21;100399.03;5092176;27;46084;-58
2022/09/09 09:16:48;;;;;;;;;1.00;1.00;;;;;20.75;57.67;100401.69;5076492;27;45441;-57
2022/09/09 09:19:16;;;;;;;;;4.00;1.00;;;;;20.66;57.39;100407.19;5077491;27;45253;-57
2022/09/09 09:21:44;;;;;;;;;2.00;2.00;;;;;20.73;57.05;100416.38;5075904;27;45232;-55
2022/09/09 09:24:23;;;;;;;;;1.00;1.00;;;;;20.72;57.12;100411.97;5115228;27;48011;-56
2022/09/09 09:26:49;;;;;;;;;1.00;1.00;;;;;20.66;57.26;100410.72;5076535;27;45415;-55
2022/09/09 09:29:18;;;;;;;;;4.67;3.00;;;;;20.67;57.40;100414.28;5076940;27;45277;-57
2022/09/09 09:31:54;;;;;;;;;1.00;1.00;;;;;20.74;56.99;100420.78;5096618;27;45421;-56
2022/09/09 09:34:19;;;;;;;;;2.00;2.00;;;;;20.70;56.63;100419.38;5093702;27;45514;-56
2022/09/09 09:36:53;;;;;;;;;3.67;1.00;;;;;20.69;56.85;100417.66;5075883;27;45457;-56
2022/09/09 09:39:38;;;;;;;;;1.00;1.00;;;;;20.71;57.21;100421.94;5076099;27;45675;-57
2022/09/09 09:42:13;;;;;;;;;1.00;1.00;;;;;20.71;57.10;100423.78;5084119;27;45390;-55
2022/09/09 09:44:40;;;;;;;;;2.00;1.00;;;;;20.77;56.77;100425.84;5080242;27;46313;-56
2022/09/09 09:47:06;;;;;;;;;2.00;2.00;;;;;20.75;56.64;100433.28;5084978;27;45329;-58
2022/09/09 09:49:32;;;;;;;;;2.00;2.00;;;;;20.78;57.02;100432.97;5075853;28;45309;-55
2022/09/09 09:52:03;;;;;;;;;1.67;1.67;;;;;20.69;56.89;100433.88;5074380;27;45546;-57
2022/09/09 09:54:31;;;;;;;;;2.00;2.00;;;;;20.69;57.22;100423.06;5075379;27;46127;-56
2022/09/09 09:57:17;;;;;;;;;1.00;1.00;;;;;20.71;57.19;100423.78;5074355;27;45488;-58
2022/09/09 09:59:43;;;;;;;;;3.25;2.25;;;;;20.74;56.42;100437.00;5080538;27;45413;-56
2022/09/09 10:02:14;;;;;;;;;1.00;1.00;;;;;20.83;56.62;100430.63;5075880;27;45517;-57
2022/09/09 10:04:41;;;;;;;;;2.00;2.00;;;;;20.85;56.35;100437.59;5076672;27;45484;-58
2022/09/09 10:07:22;;;;;;;;;1.00;1.00;;;;;20.80;56.66;100437.19;5088738;27;45533;-57
2022/09/09 10:09:56;;;;;;;;;1.25;1.25;;;;;20.68;57.02;100443.00;5086450;27;45555;-55
2022/09/09 10:12:53;;;;;;;;;1.00;1.00;;;;;20.53;56.84;100445.38;5093284;27;45558;-54
2022/09/09 10:15:40;;;;;;;;;1.25;1.25;;;;;20.43;56.40;100445.44;5088003;27;45429;-56
2022/09/09 10:18:23;;;;;;;;;2.75;1.00;;;;;20.45;56.98;100448.03;5086963;27;45369;-57
2022/09/09 10:21:27;;;;;;;;;3.00;3.00;;;;;20.51;56.70;100444.69;5073828;28;45272;-57
2022/09/09 10:24:27;;;;;;;;;1.00;1.00;;;;;20.66;56.88;100445.00;5076639;27;45519;-57
2022/09/09 10:26:52;;;;;;;;;1.67;1.00;;;;;20.79;55.97;100453.56;5056867;27;47439;-55
2022/09/09 10:29:47;;;;;;;;;2.33;2.33;;;;;20.99;55.85;100455.13;5088433;27;45534;-56
2022/09/09 10:32:45;;;;;;;;;2.00;2.00;;;;;21.12;55.02;100447.44;5085302;27;46026;-58
2022/09/09 10:35:32;;;;;;;;;1.00;1.00;;;;;21.14;55.21;100461.66;5075741;27;45520;-60
2022/09/09 10:38:29;;;;;;;;;2.00;2.00;;;;;21.08;55.48;100456.00;5091724;27;46108;-58
2022/09/09 10:40:57;;;;;;;;;1.00;1.00;;;;;21.10;54.86;100451.31;5085827;27;45489;-58
2022/09/09 10:43:47;;;;;;;;;2.25;2.25;;;;;21.30;54.45;100444.72;5095301;27;45464;-59
2022/09/09 10:46:22;;;;;;;;;5.75;1.75;;;;;21.60;53.87;100446.09;5079202;27;45471;-59
2022/09/09 10:48:47;;;;;;;;;2.25;1.00;;;;;21.70;53.45;100446.81;5078593;27;46260;-58
2022/09/09 10:51:15;;;;;;;;;2.67;2.67;;;;;21.68;53.62;100440.72;5078231;27;45384;-60
2022/09/09 10:54:29;;;;;;;;;1.50;1.00;;;;;21.58;54.27;100434.56;5078976;27;45398;-60
2022/09/09 10:57:02;;;;;;;;;4.00;2.00;;;;;21.56;54.28;100444.72;5072796;27;45468;-63
2022/09/09 10:59:36;;;;;;;;;2.50;2.50;;;;;21.70;54.39;100437.88;5095413;27;45199;-59
2022/09/09 11:02:28;;;;;;;;;2.00;2.00;;;;;21.63;54.35;100439.53;5099492;27;45336;-58
2022/09/09 11:05:20;;;;;;;;;2.75;1.75;;;;;21.53;53.99;100445.06;5098488;27;45541;-58
2022/09/09 11:08:00;;;;;;;;;2.75;2.00;;;;;21.37;54.92;100450.38;5099411;27;45510;-59
2022/09/09 11:10:40;;;;;;;;;2.25;1.75;;;;;21.28;55.84;100441.34;5098960;27;46090;-59
2022/09/09 11:13:19;;;;;;;;;3.00;3.00;;;;;21.23;55.76;100440.09;5098506;27;45720;-57
2022/09/09 11:15:51;;;;;;;;;3.00;1.50;;;;;21.26;56.02;100443.34;5099206;27;45187;-58
2022/09/09 11:18:22;;;;;;;;;2.75;2.75;;;;;21.34;54.44;100431.72;5099209;27;45420;-59
2022/09/09 11:20:55;;;;;;;;;1.50;1.50;;;;;21.56;53.93;100423.06;5098603;27;46347;-61
2022/09/09 11:23:32;;;;;;;;;1.00;1.00;;;;;21.60;53.10;100429.84;5097825;27;45310;-57
2022/09/09 11:26:03;;;;;;;;;3.25;2.00;;;;;21.54;53.24;100438.63;5098198;27;45215;-62
2022/09/09 11:28:58;;;;;;;;;1.50;1.50;;;;;21.53;52.89;100434.22;5097691;27;45451;-59
2022/09/09 11:31:51;;;;;;;;;1.00;1.00;;;;;21.48;52.85;100423.91;5083332;27;45459;-58
2022/09/09 11:34:35;;;;;;;;;1.25;1.25;;;;;21.47;53.19;100429.44;5096151;27;45284;-60
2022/09/09 11:37:00;;;;;;;;;2.00;2.00;;;;;21.36;52.92;100433.28;5076448;27;45511;-58
2022/09/09 11:39:38;;;;;;;;;3.75;3.00;;;;;21.27;53.82;100436.94;5078774;28;45325;-58
2022/09/09 11:42:12;;;;;;;;;2.25;2.25;;;;;21.16;53.39;100454.22;5078074;28;45790;-59
2022/09/09 11:44:38;;;;;;;;;3.67;2.00;;;;;21.17;53.77;100455.94;5078157;27;45324;-58
2022/09/09 11:47:16;;;;;;;;;1.00;1.00;;;;;21.26;54.11;100458.75;5078136;27;45437;-59